createdAt,value
2019-01-21T00:00:22.221Z,80.77
2019-01-21T00:02:52.463Z,80.21
2019-01-21T00:05:23.044Z,80.41
2019-01-21T00:07:53.394Z,80.51
2019-01-21T00:10:23.762Z,81.06
2019-01-21T00:12:55.448Z,80.41
2019-01-21T00:15:28.054Z,80.07
2019-01-21T00:18:01.151Z,80.00
2019-01-21T00:20:31.433Z,80.11
2019-01-21T00:23:02.511Z,80.47
2019-01-21T00:25:34.168Z,80.80
2019-01-21T00:28:07.250Z,80.94
2019-01-21T00:30:37.575Z,81.04
2019-01-21T00:33:11.095Z,81.22
2019-01-21T00:35:41.350Z,81.32
2019-01-21T00:38:11.606Z,81.70
2019-01-21T00:40:42.163Z,81.47
2019-01-21T00:43:12.456Z,81.28
2019-01-21T00:45:42.769Z,81.04
2019-01-21T00:48:13.021Z,81.12
2019-01-21T00:50:43.264Z,80.66
2019-01-21T00:53:13.780Z,80.20
2019-01-21T00:55:44.378Z,79.69
2019-01-21T00:58:14.676Z,79.74
2019-01-21T01:00:48.049Z,79.62
2019-01-21T01:03:18.858Z,79.39
2019-01-21T01:05:49.257Z,79.49
2019-01-21T01:10:46.281Z,79.36
2019-01-21T01:13:16.517Z,79.61
2019-01-21T01:15:46.821Z,79.43
2019-01-21T01:18:20.206Z,79.07
2019-01-21T01:20:51.075Z,78.77
2019-01-21T01:23:21.350Z,78.95
2019-01-21T01:25:51.713Z,79.24
2019-01-21T01:28:22.379Z,79.13
2019-01-21T01:30:52.669Z,79.30
2019-01-21T01:33:22.971Z,79.54
2019-01-21T01:35:53.209Z,80.06
2019-01-21T01:38:25.818Z,80.33
2019-01-21T01:40:56.110Z,80.33
2019-01-21T01:43:26.486Z,80.68
2019-01-21T01:45:56.889Z,80.74
2019-01-21T01:48:27.442Z,80.40
2019-01-21T01:50:57.724Z,80.67
2019-01-21T01:53:28.155Z,80.58
2019-01-21T01:55:58.507Z,80.79
2019-01-21T01:58:28.724Z,80.64
2019-01-21T02:00:59.164Z,80.28
2019-01-21T02:03:30.730Z,80.66
2019-01-21T02:06:01.344Z,80.86
2019-01-21T02:08:34.074Z,81.09
2019-01-21T02:11:04.376Z,80.85
2019-01-21T02:13:34.680Z,80.28
2019-01-21T02:16:05.029Z,80.19
2019-01-21T02:18:35.664Z,80.70
2019-01-21T02:21:06.543Z,81.12
2019-01-21T02:23:38.430Z,82.12
2019-01-21T02:26:22.469Z,82.51
2019-01-21T02:29:04.462Z,82.72
2019-01-21T02:32:14.187Z,83.14
2019-01-21T02:35:31.640Z,83.44
2019-01-21T02:38:35.333Z,83.78
2019-01-21T02:41:35.807Z,84.27
2019-01-21T02:44:53.412Z,84.83
2019-01-21T02:47:40.352Z,85.08
2019-01-21T02:50:50.804Z,85.35
2019-01-21T02:54:04.784Z,85.43
2019-01-21T02:57:28.218Z,85.59
2019-01-21T03:00:25.837Z,85.41
2019-01-21T03:03:29.921Z,85.96
2019-01-21T03:06:34.420Z,86.67
2019-01-21T03:09:37.818Z,86.46
2019-01-21T03:12:56.206Z,86.74
2019-01-21T03:15:53.033Z,86.33
2019-01-21T03:19:07.502Z,86.34
2019-01-21T03:22:06.327Z,86.57
2019-01-21T03:25:29.245Z,86.45
2019-01-21T03:28:40.235Z,85.89
2019-01-21T03:32:05.322Z,86.57
2019-01-21T03:35:41.036Z,86.21
2019-01-21T03:38:47.868Z,86.04
2019-01-21T03:41:37.609Z,86.49
2019-01-21T03:44:40.099Z,86.72
2019-01-21T03:47:47.825Z,85.99
2019-01-21T03:50:58.327Z,86.33
2019-01-21T03:53:55.549Z,86.12
2019-01-21T03:56:59.543Z,86.78
2019-01-21T04:00:00.487Z,87.08
2019-01-21T04:03:05.835Z,87.04
2019-01-21T04:06:26.173Z,87.25
2019-01-21T04:09:37.263Z,87.11
2019-01-21T04:12:32.038Z,87.49
2019-01-21T04:15:34.021Z,87.34
2019-01-21T04:18:30.122Z,87.94
2019-01-21T04:21:27.486Z,87.94
2019-01-21T04:24:49.979Z,87.13
2019-01-21T04:27:34.540Z,86.95
2019-01-21T04:30:20.248Z,86.62
2019-01-21T04:33:49.204Z,86.83
2019-01-21T04:36:52.569Z,86.36
2019-01-21T04:40:12.638Z,86.55
2019-01-21T04:43:21.905Z,86.43
2019-01-21T04:46:08.299Z,86.79
2019-01-21T04:48:56.962Z,87.23
2019-01-21T04:52:07.700Z,86.47
2019-01-21T04:55:24.084Z,86.83
2019-01-21T04:58:30.761Z,87.18
2019-01-21T05:01:48.320Z,87.70
2019-01-21T05:04:55.290Z,88.35
2019-01-21T05:08:15.728Z,88.83
2019-01-21T05:11:16.021Z,88.96
2019-01-21T05:14:31.086Z,88.92
2019-01-21T05:17:55.404Z,88.90
2019-01-21T05:21:06.300Z,89.09
2019-01-21T05:24:17.538Z,88.95
2019-01-21T05:27:10.385Z,88.78
2019-01-21T05:30:08.493Z,89.25
2019-01-21T05:33:40.612Z,88.94
2019-01-21T05:36:48.729Z,89.16
2019-01-21T05:39:34.167Z,89.35
2019-01-21T05:42:36.671Z,89.07
2019-01-21T05:45:25.671Z,89.24
2019-01-21T05:48:31.115Z,89.37
2019-01-21T05:51:32.685Z,89.38
2019-01-21T05:55:04.703Z,89.59
2019-01-21T05:58:34.271Z,90.07
2019-01-21T06:01:47.687Z,90.47
2019-01-21T06:04:59.422Z,89.05
2019-01-21T06:08:07.841Z,89.11
2019-01-21T06:10:47.344Z,88.73
2019-01-21T06:13:55.569Z,88.83
2019-01-21T06:17:03.661Z,89.18
2019-01-21T06:20:11.701Z,89.96
2019-01-21T06:23:30.977Z,90.31
2019-01-21T06:26:42.434Z,90.42
2019-01-21T06:29:34.355Z,90.19
2019-01-21T06:32:45.324Z,89.55
2019-01-21T06:35:59.737Z,89.30
2019-01-21T06:39:08.766Z,89.01
2019-01-21T06:42:39.683Z,89.24
2019-01-21T06:45:35.160Z,89.93
2019-01-21T06:48:54.988Z,89.51
2019-01-21T06:52:01.422Z,89.12
2019-01-21T06:55:07.532Z,89.00
2019-01-21T06:58:17.737Z,89.04
2019-01-21T07:01:25.273Z,88.75
2019-01-21T07:04:33.861Z,88.51
2019-01-21T07:07:57.295Z,88.53
2019-01-21T07:10:36.673Z,88.42
2019-01-21T07:13:53.865Z,88.98
2019-01-21T07:17:05.256Z,89.83
2019-01-21T07:20:03.632Z,89.88
2019-01-21T07:23:17.958Z,89.66
2019-01-21T07:26:25.823Z,89.28
2019-01-21T07:29:32.953Z,88.77
2019-01-21T07:32:37.741Z,88.78
2019-01-21T07:36:09.961Z,88.59
2019-01-21T07:38:54.646Z,88.46
2019-01-21T07:42:00.378Z,89.32
2019-01-21T07:45:09.543Z,89.05
2019-01-21T07:48:15.318Z,88.67
2019-01-21T07:51:23.763Z,87.86
2019-01-21T07:54:49.749Z,87.48
2019-01-21T07:57:54.863Z,86.69
2019-01-21T08:00:51.697Z,86.33
2019-01-21T08:03:55.643Z,86.50
2019-01-21T08:07:04.473Z,86.81
2019-01-21T08:09:59.071Z,86.92
2019-01-21T08:13:06.198Z,86.64
2019-01-21T08:16:02.132Z,86.48
2019-01-21T08:18:57.123Z,86.24
2019-01-21T08:21:58.677Z,85.52
2019-01-21T08:25:08.853Z,86.00
2019-01-21T08:27:58.550Z,86.63
2019-01-21T08:31:07.982Z,87.15
2019-01-21T08:34:19.204Z,87.03
2019-01-21T08:37:39.826Z,86.71
2019-01-21T08:40:19.976Z,86.50
2019-01-21T08:43:23.477Z,85.85
2019-01-21T08:46:33.272Z,85.72
2019-01-21T08:49:40.495Z,85.18
2019-01-21T08:52:44.057Z,85.27
2019-01-21T08:55:36.543Z,85.16
2019-01-21T08:59:02.469Z,85.65
2019-01-21T09:02:13.402Z,86.11
2019-01-21T09:05:32.953Z,86.55
2019-01-21T09:08:48.448Z,87.18
2019-01-21T09:12:05.312Z,87.81
2019-01-21T09:15:12.242Z,87.80
2019-01-21T09:18:04.278Z,87.24
2019-01-21T09:21:24.551Z,87.07
2019-01-21T09:24:34.763Z,86.82
2019-01-21T09:27:17.966Z,87.01
2019-01-21T09:30:19.830Z,86.31
2019-01-21T09:33:34.545Z,85.41
2019-01-21T09:36:54.667Z,85.01
2019-01-21T09:39:57.976Z,85.13
2019-01-21T09:43:06.004Z,84.42
2019-01-21T09:46:06.416Z,84.26
2019-01-21T09:48:34.828Z,84.59
2019-01-21T09:51:09.408Z,84.36
2019-01-21T09:53:40.028Z,83.45
2019-01-21T09:56:10.366Z,83.11
2019-01-21T09:58:52.828Z,82.67
2019-01-21T10:01:28.295Z,81.33
2019-01-21T10:03:59.457Z,81.17
2019-01-21T10:06:46.786Z,80.90
2019-01-21T10:09:45.881Z,80.89
2019-01-21T10:12:50.754Z,80.16
2019-01-21T10:16:20.562Z,80.10
2019-01-21T10:19:58.123Z,80.17
2019-01-21T10:22:49.851Z,80.17
2019-01-21T10:26:05.781Z,79.97
2019-01-21T10:29:04.729Z,80.13
2019-01-21T10:32:17.774Z,79.54
2019-01-21T10:35:17.694Z,79.69
2019-01-21T10:38:23.857Z,79.75
2019-01-21T10:41:28.841Z,79.20
2019-01-21T10:45:01.012Z,79.63
2019-01-21T10:47:55.171Z,78.18
2019-01-21T10:50:36.513Z,78.20
2019-01-21T10:53:33.249Z,78.43
2019-01-21T10:56:56.545Z,77.72
2019-01-21T11:00:03.898Z,77.63
2019-01-21T11:03:12.666Z,77.12
2019-01-21T11:06:26.048Z,77.96
2019-01-21T11:09:18.354Z,76.94
2019-01-21T11:12:40.319Z,77.66
2019-01-21T11:15:57.939Z,76.80
2019-01-21T11:19:12.034Z,76.95
2019-01-21T11:22:13.153Z,75.99
2019-01-21T11:25:36.331Z,76.77
2019-01-21T11:28:37.534Z,78.03
2019-01-21T11:31:30.052Z,76.30
2019-01-21T11:34:32.783Z,76.67
2019-01-21T11:37:27.622Z,76.76
2019-01-21T11:40:34.995Z,76.76
2019-01-21T11:43:44.297Z,75.64
2019-01-21T11:47:02.251Z,76.27
2019-01-21T11:50:12.721Z,76.37
2019-01-21T11:53:10.738Z,76.42
2019-01-21T11:56:22.696Z,75.55
2019-01-21T11:59:35.138Z,74.58
2019-01-21T12:02:46.876Z,74.96
2019-01-21T12:06:11.236Z,75.08
2019-01-21T12:09:46.514Z,75.50
2019-01-21T12:12:57.051Z,75.03
2019-01-21T12:16:23.340Z,74.55
2019-01-21T12:19:39.685Z,74.23
2019-01-21T12:22:50.656Z,73.91
2019-01-21T12:25:38.745Z,74.76
2019-01-21T12:28:49.516Z,75.32
2019-01-21T12:32:12.857Z,74.76
2019-01-21T12:35:19.114Z,74.83
2019-01-21T12:38:25.904Z,74.93
2019-01-21T12:41:21.978Z,74.65
2019-01-21T12:44:20.169Z,73.49
2019-01-21T12:47:02.595Z,73.77
2019-01-21T12:50:17.080Z,73.85
2019-01-21T12:53:16.805Z,73.40
2019-01-21T12:56:26.385Z,73.78
2019-01-21T12:59:23.253Z,74.08
2019-01-21T13:02:34.738Z,74.09
2019-01-21T13:05:34.475Z,73.40
2019-01-21T13:08:42.563Z,72.37
2019-01-21T13:11:49.700Z,72.61
2019-01-21T13:14:53.221Z,72.54
2019-01-21T13:17:36.266Z,71.96
2019-01-21T13:20:37.439Z,71.77
2019-01-21T13:23:31.236Z,72.11
2019-01-21T13:26:40.890Z,72.35
2019-01-21T13:29:44.228Z,71.90
2019-01-21T13:32:52.301Z,72.31
2019-01-21T13:35:55.140Z,72.43
2019-01-21T13:39:08.829Z,72.77
2019-01-21T13:42:20.709Z,71.43
2019-01-21T13:45:38.857Z,71.63
2019-01-21T13:48:22.378Z,72.36
2019-01-21T13:51:17.274Z,71.69
2019-01-21T13:54:40.335Z,72.07
2019-01-21T13:57:56.424Z,72.19
2019-01-21T14:01:09.728Z,71.97
2019-01-21T14:04:18.383Z,72.59
2019-01-21T14:07:19.989Z,72.01
2019-01-21T14:10:59.275Z,72.04
2019-01-21T14:14:11.618Z,72.18
2019-01-21T14:17:13.919Z,71.43
2019-01-21T14:20:19.855Z,72.43
2019-01-21T14:23:25.307Z,72.56
2019-01-21T14:26:37.153Z,73.03
2019-01-21T14:29:23.637Z,72.61
2019-01-21T14:32:28.474Z,72.77
2019-01-21T14:35:41.679Z,72.61
2019-01-21T14:38:52.487Z,73.16
2019-01-21T14:45:00.472Z,73.23
2019-01-21T14:48:09.583Z,73.32
2019-01-21T14:51:13.070Z,74.56
2019-01-21T14:54:16.981Z,74.25
2019-01-21T14:57:45.159Z,74.45
2019-01-21T15:01:55.146Z,75.29
2019-01-21T15:08:53.948Z,75.40
2019-01-21T15:12:00.422Z,76.12
2019-01-21T15:15:10.725Z,76.13
2019-01-21T15:18:09.788Z,75.79
2019-01-21T15:21:14.593Z,76.38
2019-01-21T15:24:33.094Z,76.84
2019-01-21T15:27:28.004Z,77.72
2019-01-21T15:30:29.250Z,78.64
2019-01-21T15:33:50.515Z,78.76
2019-01-21T15:36:50.717Z,79.01
2019-01-21T15:40:05.400Z,79.30
2019-01-21T15:42:59.222Z,80.00
2019-01-21T15:46:25.234Z,80.70
2019-01-21T15:49:08.152Z,80.47
2019-01-21T15:52:28.710Z,81.08
2019-01-21T15:55:42.773Z,81.74
2019-01-21T15:58:50.796Z,82.17
2019-01-21T16:02:01.477Z,82.95
2019-01-21T16:05:01.262Z,83.53
2019-01-21T16:08:03.805Z,83.64
2019-01-21T16:11:15.465Z,84.00
2019-01-21T16:14:13.825Z,83.89
2019-01-21T16:17:08.914Z,84.00
2019-01-21T16:20:14.767Z,84.32
2019-01-21T16:23:39.680Z,85.01
2019-01-21T16:26:14.054Z,85.63
2019-01-21T16:29:18.093Z,85.17
2019-01-21T16:32:22.798Z,84.69
2019-01-21T16:35:18.953Z,84.22
2019-01-21T16:38:12.818Z,83.46
2019-01-21T16:41:18.175Z,82.92
2019-01-21T16:43:49.578Z,82.61
2019-01-21T16:46:22.755Z,82.59
2019-01-21T16:48:54.207Z,82.46
2019-01-21T16:51:24.887Z,82.29
2019-01-21T16:54:07.542Z,82.08
2019-01-21T16:56:44.919Z,81.77
2019-01-21T16:59:18.298Z,81.55
2019-01-21T17:01:49.899Z,81.49
2019-01-21T17:04:20.309Z,81.67
2019-01-21T17:06:53.146Z,82.06
2019-01-21T17:09:26.223Z,82.27
2019-01-21T17:11:56.632Z,82.60
2019-01-21T17:14:31.842Z,82.18
2019-01-21T17:17:06.878Z,81.98
2019-01-21T17:19:38.304Z,82.16
2019-01-21T17:22:09.087Z,82.27
2019-01-21T17:24:40.831Z,82.97
2019-01-21T17:27:14.281Z,83.16
2019-01-21T17:29:45.411Z,83.19
2019-01-21T17:32:16.218Z,83.29
2019-01-21T17:34:53.227Z,83.03
2019-01-21T17:37:24.679Z,83.07
2019-01-21T17:39:55.331Z,82.46
2019-01-21T17:42:27.296Z,82.42
2019-01-21T17:45:00.784Z,82.92
2019-01-21T17:47:34.426Z,83.33
2019-01-21T17:50:05.685Z,83.58
2019-01-21T17:52:40.702Z,83.59
2019-01-21T17:55:16.109Z,83.42
2019-01-21T17:57:50.877Z,82.97
2019-01-21T18:00:34.188Z,83.11
2019-01-21T18:03:06.246Z,83.37
2019-01-21T18:05:57.081Z,83.37
2019-01-21T18:08:41.542Z,83.06
2019-01-21T18:11:15.072Z,83.62
2019-01-21T18:13:48.848Z,83.76
2019-01-21T18:16:21.442Z,84.26
2019-01-21T18:18:54.387Z,84.55
2019-01-21T18:21:29.927Z,85.23
2019-01-21T18:24:03.046Z,85.50
2019-01-21T18:26:35.914Z,85.14
2019-01-21T18:29:09.523Z,84.37
2019-01-21T18:31:40.112Z,84.23
2019-01-21T18:34:14.763Z,83.91
2019-01-21T18:36:45.194Z,83.97
2019-01-21T18:39:21.265Z,84.30
2019-01-21T18:41:54.701Z,84.83
2019-01-21T18:44:25.179Z,84.61
2019-01-21T18:46:59.669Z,83.94
2019-01-21T18:49:33.408Z,83.70
2019-01-21T18:52:05.027Z,84.00
2019-01-21T18:54:36.849Z,84.08
2019-01-21T18:57:07.260Z,83.93
2019-01-21T18:59:39.912Z,83.80
2019-01-21T19:02:10.258Z,83.62
2019-01-21T19:04:44.800Z,83.71
2019-01-21T19:07:15.062Z,83.73
2019-01-21T19:09:47.911Z,83.78
2019-01-21T19:12:18.729Z,83.89
2019-01-21T19:14:59.594Z,84.03
2019-01-21T19:17:29.242Z,84.20
2019-01-21T19:20:07.221Z,84.79
2019-01-21T19:22:39.062Z,84.83
2019-01-21T19:25:18.986Z,84.96
2019-01-21T19:27:55.218Z,85.03
2019-01-21T19:30:30.986Z,84.96
2019-01-21T19:33:06.292Z,84.46
2019-01-21T19:35:39.524Z,84.56
2019-01-21T19:38:10.720Z,84.36
2019-01-21T19:40:58.688Z,84.31
2019-01-21T19:43:28.976Z,83.62
2019-01-21T19:45:59.530Z,82.47
2019-01-21T19:48:40.186Z,82.86
2019-01-21T19:51:12.007Z,82.49
2019-01-21T19:53:46.416Z,82.16
2019-01-21T19:56:22.013Z,81.50
2019-01-21T19:58:52.403Z,81.72
2019-01-21T20:01:25.740Z,82.19
2019-01-21T20:04:02.347Z,82.18
2019-01-21T20:06:36.470Z,82.48
2019-01-21T20:09:29.995Z,82.86
2019-01-21T20:12:01.934Z,82.86
2019-01-21T20:14:35.077Z,82.98
2019-01-21T20:17:08.018Z,82.97
2019-01-21T20:19:43.739Z,82.86
2019-01-21T20:22:20.922Z,82.90
2019-01-21T20:24:53.282Z,83.39
2019-01-21T20:27:28.696Z,83.67
2019-01-21T20:30:02.155Z,83.67
2019-01-21T20:33:19.135Z,84.43
2019-01-21T20:35:53.969Z,84.75
2019-01-21T20:38:24.597Z,84.65
2019-01-21T20:41:13.026Z,84.76
2019-01-21T20:43:47.750Z,84.71
2019-01-21T20:46:20.817Z,84.51
2019-01-21T20:48:51.440Z,84.61
2019-01-21T20:51:28.046Z,84.88
2019-01-21T20:54:06.781Z,85.20
2019-01-21T20:56:48.830Z,84.91
2019-01-21T20:59:20.348Z,84.95
2019-01-21T21:01:51.381Z,85.18
2019-01-21T21:04:25.302Z,85.15
2019-01-21T21:06:58.912Z,84.89
2019-01-21T21:09:30.369Z,84.53
2019-01-21T21:12:03.288Z,84.58
2019-01-21T21:14:37.077Z,84.63
2019-01-21T21:17:09.763Z,84.82
2019-01-21T21:19:42.828Z,84.59
2019-01-21T21:22:21.011Z,84.59
2019-01-21T21:24:48.186Z,84.44
2019-01-21T21:27:27.421Z,84.38
2019-01-21T21:29:58.293Z,84.99
2019-01-21T21:32:31.091Z,84.82
2019-01-21T21:35:05.150Z,84.80
2019-01-21T21:37:45.690Z,84.71
2019-01-21T21:40:19.938Z,84.65
2019-01-21T21:42:50.592Z,84.41
2019-01-21T21:45:22.782Z,85.38
2019-01-21T21:47:53.410Z,85.20
2019-01-21T21:50:26.377Z,84.93
2019-01-21T21:53:04.634Z,85.24
2019-01-21T21:55:40.760Z,85.65
2019-01-21T21:58:17.083Z,85.78
2019-01-21T22:00:57.895Z,85.99
2019-01-21T22:03:30.073Z,86.17
2019-01-21T22:06:04.742Z,86.38
2019-01-21T22:08:37.935Z,86.44
2019-01-21T22:11:09.684Z,86.88
2019-01-21T22:13:39.996Z,86.94
2019-01-21T22:16:10.397Z,86.57
2019-01-21T22:18:40.689Z,86.36
2019-01-21T22:21:11.374Z,86.56
2019-01-21T22:23:41.913Z,87.01
2019-01-21T22:26:14.744Z,86.98
2019-01-21T22:28:45.316Z,87.16
2019-01-21T22:31:22.354Z,87.23
2019-01-21T22:33:52.703Z,87.26
2019-01-21T22:36:23.237Z,87.53
2019-01-21T22:38:56.243Z,87.99
2019-01-21T22:41:30.480Z,87.98
2019-01-21T22:44:06.959Z,87.88
2019-01-21T22:46:39.150Z,88.15
2019-01-21T22:49:12.100Z,88.42
2019-01-21T22:51:44.962Z,88.29
2019-01-21T22:54:17.931Z,88.18
2019-01-21T22:56:48.622Z,88.07
2019-01-21T22:59:21.769Z,88.82
2019-01-21T23:01:52.178Z,89.20
2019-01-21T23:04:22.582Z,89.37
2019-01-21T23:06:53.130Z,89.53
2019-01-21T23:09:27.870Z,89.66
2019-01-21T23:11:59.376Z,89.48
2019-01-21T23:14:32.846Z,89.99
2019-01-21T23:17:03.133Z,90.34
2019-01-21T23:19:33.452Z,90.44
2019-01-21T23:22:07.672Z,90.21
2019-01-21T23:24:38.410Z,90.12
2019-01-21T23:27:08.688Z,90.11
2019-01-21T23:29:41.918Z,90.56
2019-01-21T23:32:12.368Z,91.04
2019-01-21T23:34:44.331Z,91.19
2019-01-21T23:37:14.752Z,91.43
2019-01-21T23:39:45.341Z,91.40
2019-01-21T23:42:24.525Z,90.96
2019-01-21T23:44:54.958Z,91.12
2019-01-21T23:47:25.633Z,91.49
2019-01-21T23:50:00.722Z,91.92
2019-01-21T23:52:31.181Z,92.27
2019-01-21T23:55:02.462Z,92.34
2019-01-21T23:57:32.872Z,92.37
